sensor_id;sensor_type;location;lat;lon;timestamp;pressure;altitude;pressure_sealevel;temperature;humidity
40245;BME280;25963;42.694;23.600;2023-09-30T00:02:20;95645.88;;;14.02;85.67
40245;BME280;25963;42.694;23.600;2023-09-30T00:04:46;95624.53;;;13.97;86.62
40245;BME280;25963;42.694;23.600;2023-09-30T00:07:11;95631.47;;;14.10;84.24
40245;BME280;25963;42.694;23.600;2023-09-30T00:09:36;95632.16;;;14.05;83.83
40245;BME280;25963;42.694;23.600;2023-09-30T00:12:02;95618.06;;;13.93;84.80
40245;BME280;25963;42.694;23.600;2023-09-30T00:14:28;95621.59;;;13.27;87.16
40245;BME280;25963;42.694;23.600;2023-09-30T00:16:54;95629.16;;;13.23;87.69
40245;BME280;25963;42.694;23.600;2023-09-30T00:19:20;95635.59;;;13.64;87.67
40245;BME280;25963;42.694;23.600;2023-09-30T00:21:48;95627.97;;;13.56;86.25
40245;BME280;25963;42.694;23.600;2023-09-30T00:24:13;95627.13;;;13.74;86.71
40245;BME280;25963;42.694;23.600;2023-09-30T00:26:39;95632.56;;;13.90;86.94
40245;BME280;25963;42.694;23.600;2023-09-30T00:29:04;95642.22;;;13.55;87.19
40245;BME280;25963;42.694;23.600;2023-09-30T00:31:30;95635.69;;;13.57;86.40
40245;BME280;25963;42.694;23.600;2023-09-30T00:33:56;95633.06;;;13.39;86.81
40245;BME280;25963;42.694;23.600;2023-09-30T00:36:22;95632.31;;;13.80;87.01
40245;BME280;25963;42.694;23.600;2023-09-30T00:38:47;95647.81;;;13.35;88.58
40245;BME280;25963;42.694;23.600;2023-09-30T00:41:13;95633.66;;;13.71;86.62
40245;BME280;25963;42.694;23.600;2023-09-30T00:43:39;95646.97;;;13.83;86.43
40245;BME280;25963;42.694;23.600;2023-09-30T00:48:33;95621.25;;;13.83;87.85
40245;BME280;25963;42.694;23.600;2023-09-30T00:50:59;95628.75;;;13.86;87.49
40245;BME280;25963;42.694;23.600;2023-09-30T00:53:25;95626.94;;;13.99;86.67
40245;BME280;25963;42.694;23.600;2023-09-30T00:55:50;95630.19;;;14.01;86.67
40245;BME280;25963;42.694;23.600;2023-09-30T00:58:18;95626.16;;;14.10;85.80
40245;BME280;25963;42.694;23.600;2023-09-30T01:00:44;95638.91;;;13.89;86.34
40245;BME280;25963;42.694;23.600;2023-09-30T01:03:10;95635.97;;;14.09;86.61
40245;BME280;25963;42.694;23.600;2023-09-30T01:05:36;95628.81;;;14.10;87.81
40245;BME280;25963;42.694;23.600;2023-09-30T01:08:02;95636.91;;;14.15;85.91
40245;BME280;25963;42.694;23.600;2023-09-30T01:10:28;95643.84;;;14.28;89.27
40245;BME280;25963;42.694;23.600;2023-09-30T01:12:54;95632.91;;;14.36;84.68
40245;BME280;25963;42.694;23.600;2023-09-30T01:15:19;95636.03;;;14.33;85.15
40245;BME280;25963;42.694;23.600;2023-09-30T01:17:45;95630.47;;;14.34;84.46
40245;BME280;25963;42.694;23.600;2023-09-30T01:20:12;95628.28;;;14.43;87.06
40245;BME280;25963;42.694;23.600;2023-09-30T01:22:41;95630.34;;;14.41;86.97
40245;BME280;25963;42.694;23.600;2023-09-30T01:25:08;95627.50;;;14.43;84.69
40245;BME280;25963;42.694;23.600;2023-09-30T01:27:35;95633.31;;;14.51;87.91
40245;BME280;25963;42.694;23.600;2023-09-30T01:30:00;95639.59;;;14.50;85.12
40245;BME280;25963;42.694;23.600;2023-09-30T01:32:26;95618.03;;;14.47;88.34
40245;BME280;25963;42.694;23.600;2023-09-30T01:34:52;95626.94;;;14.52;85.48
40245;BME280;25963;42.694;23.600;2023-09-30T01:37:17;95628.53;;;14.53;85.13
40245;BME280;25963;42.694;23.600;2023-09-30T01:39:42;95623.56;;;14.45;85.24
40245;BME280;25963;42.694;23.600;2023-09-30T01:42:10;95624.13;;;14.35;84.80
40245;BME280;25963;42.694;23.600;2023-09-30T01:44:36;95603.78;;;14.18;85.57
40245;BME280;25963;42.694;23.600;2023-09-30T01:47:01;95620.31;;;14.20;85.36
40245;BME280;25963;42.694;23.600;2023-09-30T01:49:26;95626.53;;;14.13;86.14
40245;BME280;25963;42.694;23.600;2023-09-30T01:51:52;95617.72;;;14.01;87.43
40245;BME280;25963;42.694;23.600;2023-09-30T01:54:18;95620.38;;;14.01;88.10
40245;BME280;25963;42.694;23.600;2023-09-30T01:56:43;95621.53;;;14.05;89.63
40245;BME280;25963;42.694;23.600;2023-09-30T01:59:09;95611.13;;;13.92;88.27
40245;BME280;25963;42.694;23.600;2023-09-30T02:01:34;95622.25;;;13.70;88.86
40245;BME280;25963;42.694;23.600;2023-09-30T02:04:00;95617.53;;;13.73;89.12
40245;BME280;25963;42.694;23.600;2023-09-30T02:06:25;95607.16;;;13.71;87.87
40245;BME280;25963;42.694;23.600;2023-09-30T02:08:51;95617.16;;;13.39;88.75
40245;BME280;25963;42.694;23.600;2023-09-30T02:11:16;95611.41;;;13.42;88.92
40245;BME280;25963;42.694;23.600;2023-09-30T02:13:42;95609.81;;;13.41;88.89
40245;BME280;25963;42.694;23.600;2023-09-30T02:16:13;95606.66;;;13.32;89.31
40245;BME280;25963;42.694;23.600;2023-09-30T02:18:40;95602.44;;;13.06;89.96
40245;BME280;25963;42.694;23.600;2023-09-30T02:21:06;95612.75;;;13.14;89.60
40245;BME280;25963;42.694;23.600;2023-09-30T02:23:33;95618.34;;;12.88;91.70
40245;BME280;25963;42.694;23.600;2023-09-30T02:25:58;95611.88;;;12.84;92.20
40245;BME280;25963;42.694;23.600;2023-09-30T02:28:24;95614.16;;;12.37;94.91
40245;BME280;25963;42.694;23.600;2023-09-30T02:30:51;95617.97;;;12.66;93.81
40245;BME280;25963;42.694;23.600;2023-09-30T02:33:17;95623.47;;;12.64;93.27
40245;BME280;25963;42.694;23.600;2023-09-30T02:35:45;95615.38;;;12.59;93.04
40245;BME280;25963;42.694;23.600;2023-09-30T02:38:12;95610.41;;;12.69;92.75
40245;BME280;25963;42.694;23.600;2023-09-30T02:40:41;95616.88;;;12.73;92.09
40245;BME280;25963;42.694;23.600;2023-09-30T02:43:10;95614.88;;;12.69;91.60
40245;BME280;25963;42.694;23.600;2023-09-30T02:45:35;95616.34;;;12.65;92.14
40245;BME280;25963;42.694;23.600;2023-09-30T02:48:01;95616.41;;;12.58;92.44
40245;BME280;25963;42.694;23.600;2023-09-30T02:50:26;95609.34;;;12.70;91.48
40245;BME280;25963;42.694;23.600;2023-09-30T02:52:52;95615.09;;;12.67;91.40
40245;BME280;25963;42.694;23.600;2023-09-30T02:55:17;95617.53;;;12.69;90.79
40245;BME280;25963;42.694;23.600;2023-09-30T02:57:43;95621.22;;;12.43;92.08
40245;BME280;25963;42.694;23.600;2023-09-30T03:00:09;95625.66;;;12.49;91.97
40245;BME280;25963;42.694;23.600;2023-09-30T03:02:55;95619.75;;;12.47;92.18
40245;BME280;25963;42.694;23.600;2023-09-30T03:05:21;95616.84;;;12.55;91.63
40245;BME280;25963;42.694;23.600;2023-09-30T03:07:49;95614.19;;;12.55;91.08
40245;BME280;25963;42.694;23.600;2023-09-30T03:16:57;95619.72;;;12.28;92.70
40245;BME280;25963;42.694;23.600;2023-09-30T03:19:22;95619.66;;;12.10;93.24
40245;BME280;25963;42.694;23.600;2023-09-30T03:21:48;95604.63;;;11.79;95.33
40245;BME280;25963;42.694;23.600;2023-09-30T03:24:14;95617.25;;;12.08;94.43
40245;BME280;25963;42.694;23.600;2023-09-30T03:26:39;95619.03;;;12.15;94.41
40245;BME280;25963;42.694;23.600;2023-09-30T03:29:06;95629.56;;;12.21;93.77
40245;BME280;25963;42.694;23.600;2023-09-30T03:31:34;95619.50;;;12.05;94.21
40245;BME280;25963;42.694;23.600;2023-09-30T03:34:00;95623.78;;;12.06;94.50
40245;BME280;25963;42.694;23.600;2023-09-30T03:36:25;95621.34;;;12.04;94.58
40245;BME280;25963;42.694;23.600;2023-09-30T03:38:52;95623.19;;;12.04;94.17
40245;BME280;25963;42.694;23.600;2023-09-30T03:41:21;95631.22;;;12.16;94.42
40245;BME280;25963;42.694;23.600;2023-09-30T03:43:46;95613.63;;;12.03;93.64
40245;BME280;25963;42.694;23.600;2023-09-30T03:46:14;95618.31;;;12.01;93.68
40245;BME280;25963;42.694;23.600;2023-09-30T03:48:41;95618.09;;;12.02;93.75
40245;BME280;25963;42.694;23.600;2023-09-30T03:51:14;95607.25;;;11.85;93.96
40245;BME280;25963;42.694;23.600;2023-09-30T03:53:45;95626.56;;;11.86;93.41
40245;BME280;25963;42.694;23.600;2023-09-30T03:56:12;95615.81;;;11.74;94.67
40245;BME280;25963;42.694;23.600;2023-09-30T03:58:41;95627.91;;;11.95;94.83
40245;BME280;25963;42.694;23.600;2023-09-30T04:01:07;95627.53;;;11.92;94.96
40245;BME280;25963;42.694;23.600;2023-09-30T04:03:36;95629.19;;;11.86;94.46
40245;BME280;25963;42.694;23.600;2023-09-30T04:06:04;95622.69;;;11.82;94.69
40245;BME280;25963;42.694;23.600;2023-09-30T04:08:30;95613.00;;;11.69;95.07
40245;BME280;25963;42.694;23.600;2023-09-30T04:10:59;95637.63;;;11.63;95.63
40245;BME280;25963;42.694;23.600;2023-09-30T04:13:24;95614.78;;;11.43;96.25
40245;BME280;25963;42.694;23.600;2023-09-30T04:15:50;95640.25;;;11.31;98.40
40245;BME280;25963;42.694;23.600;2023-09-30T04:18:16;95636.72;;;11.44;96.99
40245;BME280;25963;42.694;23.600;2023-09-30T04:20:41;95631.94;;;11.28;97.31
40245;BME280;25963;42.694;23.600;2023-09-30T04:23:07;95635.53;;;11.40;96.64
40245;BME280;25963;42.694;23.600;2023-09-30T04:25:35;95635.13;;;11.36;96.77
40245;BME280;25963;42.694;23.600;2023-09-30T04:28:00;95635.72;;;11.38;96.42
40245;BME280;25963;42.694;23.600;2023-09-30T04:30:26;95638.44;;;11.25;96.90
40245;BME280;25963;42.694;23.600;2023-09-30T04:32:52;95641.63;;;11.40;96.70
40245;BME280;25963;42.694;23.600;2023-09-30T04:35:18;95644.47;;;11.39;97.22
40245;BME280;25963;42.694;23.600;2023-09-30T04:37:43;95633.13;;;11.32;97.05
40245;BME280;25963;42.694;23.600;2023-09-30T04:40:09;95622.19;;;11.22;97.78
40245;BME280;25963;42.694;23.600;2023-09-30T04:42:43;95631.78;;;11.09;99.80
40245;BME280;25963;42.694;23.600;2023-09-30T04:45:10;95649.75;;;11.39;98.95
40245;BME280;25963;42.694;23.600;2023-09-30T04:47:36;95648.09;;;11.45;98.69
40245;BME280;25963;42.694;23.600;2023-09-30T04:53:38;95637.69;;;11.56;99.33
40245;BME280;25963;42.694;23.600;2023-09-30T04:56:04;95653.78;;;11.86;97.71
40245;BME280;25963;42.694;23.600;2023-09-30T04:58:29;95645.31;;;12.09;98.18
40245;BME280;25963;42.694;23.600;2023-09-30T05:00:55;95650.34;;;12.43;95.65
40245;BME280;25963;42.694;23.600;2023-09-30T05:03:24;95651.28;;;12.73;93.42
40245;BME280;25963;42.694;23.600;2023-09-30T05:05:52;95655.41;;;13.06;91.68
40245;BME280;25963;42.694;23.600;2023-09-30T05:08:38;95651.47;;;13.34;89.46
40245;BME280;25963;42.694;23.600;2023-09-30T05:11:04;95657.34;;;13.54;88.90
40245;BME280;25963;42.694;23.600;2023-09-30T05:13:30;95661.59;;;13.74;88.73
40245;BME280;25963;42.694;23.600;2023-09-30T05:15:56;95652.38;;;13.88;87.41
40245;BME280;25963;42.694;23.600;2023-09-30T05:18:21;95646.50;;;14.28;85.32
40245;BME280;25963;42.694;23.600;2023-09-30T05:20:46;95653.63;;;14.69;84.99
40245;BME280;25963;42.694;23.600;2023-09-30T05:23:24;95657.59;;;15.19;83.00
40245;BME280;25963;42.694;23.600;2023-09-30T05:25:51;95657.47;;;15.78;77.45
40245;BME280;25963;42.694;23.600;2023-09-30T05:28:27;95652.66;;;16.37;72.22
40245;BME280;25963;42.694;23.600;2023-09-30T05:31:01;95643.94;;;16.92;68.50
40245;BME280;25963;42.694;23.600;2023-09-30T05:33:34;95645.22;;;17.50;65.95
40245;BME280;25963;42.694;23.600;2023-09-30T05:36:01;95649.75;;;17.50;65.26
40245;BME280;25963;42.694;23.600;2023-09-30T05:38:28;95656.88;;;17.66;63.86
40245;BME280;25963;42.694;23.600;2023-09-30T05:40:54;95663.50;;;17.86;62.92
40245;BME280;25963;42.694;23.600;2023-09-30T05:43:23;95655.84;;;18.16;62.20
40245;BME280;25963;42.694;23.600;2023-09-30T05:45:48;95665.25;;;18.56;61.29
40245;BME280;25963;42.694;23.600;2023-09-30T05:48:15;95642.38;;;18.70;59.84
40245;BME280;25963;42.694;23.600;2023-09-30T05:50:41;95666.72;;;19.11;58.71
40245;BME280;25963;42.694;23.600;2023-09-30T05:53:08;95652.75;;;18.99;59.20
40245;BME280;25963;42.694;23.600;2023-09-30T05:55:35;95652.91;;;18.50;60.74
40245;BME280;25963;42.694;23.600;2023-09-30T05:58:02;95671.97;;;18.96;60.49
40245;BME280;25963;42.694;23.600;2023-09-30T06:00:27;95664.19;;;18.89;60.76
40245;BME280;25963;42.694;23.600;2023-09-30T06:02:59;95664.19;;;18.89;60.96
40245;BME280;25963;42.694;23.600;2023-09-30T06:05:25;95653.41;;;19.22;61.26
40245;BME280;25963;42.694;23.600;2023-09-30T06:07:52;95653.47;;;19.32;60.13
40245;BME280;25963;42.694;23.600;2023-09-30T06:10:19;95669.06;;;19.50;59.28
40245;BME280;25963;42.694;23.600;2023-09-30T06:12:50;95677.00;;;19.35;59.04
40245;BME280;25963;42.694;23.600;2023-09-30T06:15:20;95672.31;;;19.05;59.17
40245;BME280;25963;42.694;23.600;2023-09-30T06:17:49;95676.09;;;19.09;60.87
40245;BME280;25963;42.694;23.600;2023-09-30T06:20:17;95667.09;;;18.83;62.06
40245;BME280;25963;42.694;23.600;2023-09-30T06:22:46;95678.06;;;18.22;62.34
40245;BME280;25963;42.694;23.600;2023-09-30T06:25:13;95674.53;;;18.76;62.48
40245;BME280;25963;42.694;23.600;2023-09-30T06:27:41;95668.19;;;18.55;60.37
40245;BME280;25963;42.694;23.600;2023-09-30T06:30:07;95675.44;;;18.91;63.39
40245;BME280;25963;42.694;23.600;2023-09-30T06:32:34;95667.47;;;19.02;62.37
40245;BME280;25963;42.694;23.600;2023-09-30T06:35:02;95676.50;;;19.38;61.41
40245;BME280;25963;42.694;23.600;2023-09-30T06:37:27;95674.97;;;19.52;58.45
40245;BME280;25963;42.694;23.600;2023-09-30T06:39:55;95690.84;;;19.69;59.32
40245;BME280;25963;42.694;23.600;2023-09-30T06:42:21;95691.94;;;19.73;57.23
40245;BME280;25963;42.694;23.600;2023-09-30T06:44:46;95684.41;;;19.65;59.40
40245;BME280;25963;42.694;23.600;2023-09-30T06:47:12;95682.50;;;19.60;56.42
40245;BME280;25963;42.694;23.600;2023-09-30T06:49:38;95684.47;;;19.80;56.40
40245;BME280;25963;42.694;23.600;2023-09-30T06:52:04;95686.94;;;19.97;55.34
40245;BME280;25963;42.694;23.600;2023-09-30T06:54:31;95689.56;;;19.82;53.88
40245;BME280;25963;42.694;23.600;2023-09-30T06:56:56;95676.72;;;19.89;56.33
40245;BME280;25963;42.694;23.600;2023-09-30T06:59:22;95696.59;;;20.03;57.10
40245;BME280;25963;42.694;23.600;2023-09-30T07:01:47;95688.59;;;20.24;56.83
40245;BME280;25963;42.694;23.600;2023-09-30T07:04:13;95687.50;;;20.10;55.77
40245;BME280;25963;42.694;23.600;2023-09-30T07:06:38;95692.88;;;20.25;55.39
40245;BME280;25963;42.694;23.600;2023-09-30T07:09:04;95688.09;;;20.32;56.71
40245;BME280;25963;42.694;23.600;2023-09-30T07:11:30;95703.38;;;20.42;51.59
40245;BME280;25963;42.694;23.600;2023-09-30T07:13:58;95697.19;;;20.41;55.41
40245;BME280;25963;42.694;23.600;2023-09-30T07:16:24;95688.66;;;20.60;54.13
40245;BME280;25963;42.694;23.600;2023-09-30T07:18:49;95688.16;;;20.68;57.02
40245;BME280;25963;42.694;23.600;2023-09-30T07:21:16;95690.53;;;20.95;51.92
40245;BME280;25963;42.694;23.600;2023-09-30T07:23:41;95705.28;;;21.08;53.69
40245;BME280;25963;42.694;23.600;2023-09-30T07:26:07;95702.56;;;21.23;54.08
40245;BME280;25963;42.694;23.600;2023-09-30T07:28:33;95700.94;;;21.32;51.05
40245;BME280;25963;42.694;23.600;2023-09-30T07:30:59;95677.94;;;20.80;49.84
40245;BME280;25963;42.694;23.600;2023-09-30T07:33:24;95706.88;;;21.09;53.15
40245;BME280;25963;42.694;23.600;2023-09-30T07:35:50;95702.34;;;20.89;51.29
40245;BME280;25963;42.694;23.600;2023-09-30T07:38:15;95689.44;;;21.11;54.76
40245;BME280;25963;42.694;23.600;2023-09-30T07:40:41;95693.94;;;21.52;49.57
40245;BME280;25963;42.694;23.600;2023-09-30T07:43:07;95705.16;;;21.69;50.17
40245;BME280;25963;42.694;23.600;2023-09-30T07:45:34;95687.97;;;21.75;49.90
40245;BME280;25963;42.694;23.600;2023-09-30T07:47:59;95696.44;;;21.98;52.53
40245;BME280;25963;42.694;23.600;2023-09-30T07:50:25;95700.69;;;22.09;50.55
40245;BME280;25963;42.694;23.600;2023-09-30T07:52:51;95704.94;;;22.15;46.79
40245;BME280;25963;42.694;23.600;2023-09-30T07:55:16;95696.84;;;22.25;50.05
40245;BME280;25963;42.694;23.600;2023-09-30T07:57:43;95696.34;;;22.23;49.24
40245;BME280;25963;42.694;23.600;2023-09-30T08:00:09;95690.88;;;22.39;45.75
40245;BME280;25963;42.694;23.600;2023-09-30T08:02:40;95700.34;;;22.65;50.94
40245;BME280;25963;42.694;23.600;2023-09-30T08:05:06;95704.03;;;22.74;48.06
40245;BME280;25963;42.694;23.600;2023-09-30T08:07:32;95689.59;;;22.99;47.13
40245;BME280;25963;42.694;23.600;2023-09-30T08:09:58;95691.34;;;23.14;48.36
40245;BME280;25963;42.694;23.600;2023-09-30T08:12:23;95685.00;;;23.29;47.20
40245;BME280;25963;42.694;23.600;2023-09-30T08:14:49;95675.63;;;23.51;45.47
40245;BME280;25963;42.694;23.600;2023-09-30T08:17:17;95686.69;;;23.49;46.44
40245;BME280;25963;42.694;23.600;2023-09-30T08:19:43;95684.75;;;23.31;47.21
40245;BME280;25963;42.694;23.600;2023-09-30T08:22:09;95678.13;;;23.42;47.97
40245;BME280;25963;42.694;23.600;2023-09-30T08:24:35;95681.66;;;23.66;48.97
40245;BME280;25963;42.694;23.600;2023-09-30T08:27:01;95681.19;;;23.83;46.41
40245;BME280;25963;42.694;23.600;2023-09-30T08:29:26;95682.78;;;24.08;45.04
40245;BME280;25963;42.694;23.600;2023-09-30T08:31:52;95677.88;;;24.10;45.53
40245;BME280;25963;42.694;23.600;2023-09-30T08:34:17;95655.28;;;24.25;41.64
40245;BME280;25963;42.694;23.600;2023-09-30T08:36:45;95675.44;;;24.52;43.50
40245;BME280;25963;42.694;23.600;2023-09-30T08:39:10;95661.22;;;24.65;42.86
40245;BME280;25963;42.694;23.600;2023-09-30T08:41:36;95669.06;;;24.80;43.53
40245;BME280;25963;42.694;23.600;2023-09-30T08:44:03;95655.81;;;24.98;41.63
40245;BME280;25963;42.694;23.600;2023-09-30T08:46:33;95668.91;;;25.04;38.64
40245;BME280;25963;42.694;23.600;2023-09-30T08:49:01;95667.28;;;25.22;42.75
40245;BME280;25963;42.694;23.600;2023-09-30T08:51:29;95658.38;;;25.36;40.09
40245;BME280;25963;42.694;23.600;2023-09-30T08:53:56;95655.50;;;25.46;40.57
40245;BME280;25963;42.694;23.600;2023-09-30T08:56:26;95655.19;;;25.61;39.32
40245;BME280;25963;42.694;23.600;2023-09-30T08:58:57;95650.19;;;25.82;39.59
40245;BME280;25963;42.694;23.600;2023-09-30T09:01:24;95650.69;;;25.84;37.20
40245;BME280;25963;42.694;23.600;2023-09-30T09:03:50;95644.66;;;26.01;37.69
40245;BME280;25963;42.694;23.600;2023-09-30T09:06:19;95644.41;;;26.11;36.62
40245;BME280;25963;42.694;23.600;2023-09-30T09:08:44;95641.69;;;26.25;36.88
40245;BME280;25963;42.694;23.600;2023-09-30T09:11:10;95630.56;;;26.27;38.29
40245;BME280;25963;42.694;23.600;2023-09-30T09:13:55;95641.22;;;26.46;35.30
40245;BME280;25963;42.694;23.600;2023-09-30T09:16:26;95635.75;;;25.87;32.24
40245;BME280;25963;42.694;23.600;2023-09-30T09:18:51;95627.75;;;25.95;35.36
40245;BME280;25963;42.694;23.600;2023-09-30T09:21:18;95625.78;;;26.24;34.31
40245;BME280;25963;42.694;23.600;2023-09-30T09:23:50;95633.66;;;26.34;32.56
40245;BME280;25963;42.694;23.600;2023-09-30T09:28:49;95619.69;;;26.18;33.87
40245;BME280;25963;42.694;23.600;2023-09-30T09:31:40;95622.38;;;26.54;34.26
40245;BME280;25963;42.694;23.600;2023-09-30T09:34:13;95630.75;;;26.30;28.78
40245;BME280;25963;42.694;23.600;2023-09-30T09:36:43;95613.75;;;26.30;30.13
40245;BME280;25963;42.694;23.600;2023-09-30T09:39:10;95613.22;;;25.78;29.14
40245;BME280;25963;42.694;23.600;2023-09-30T09:44:18;95623.06;;;25.60;29.04
40245;BME280;25963;42.694;23.600;2023-09-30T09:46:45;95619.44;;;25.78;27.38
40245;BME280;25963;42.694;23.600;2023-09-30T09:49:12;95615.56;;;26.21;27.86
40245;BME280;25963;42.694;23.600;2023-09-30T09:51:38;95589.81;;;26.23;27.58
40245;BME280;25963;42.694;23.600;2023-09-30T09:54:06;95605.72;;;26.61;27.48
40245;BME280;25963;42.694;23.600;2023-09-30T09:56:33;95612.91;;;26.29;26.62
40245;BME280;25963;42.694;23.600;2023-09-30T09:59:01;95579.50;;;26.03;26.32
40245;BME280;25963;42.694;23.600;2023-09-30T10:01:30;95606.88;;;26.10;26.21
40245;BME280;25963;42.694;23.600;2023-09-30T10:03:56;95622.94;;;26.29;26.58
40245;BME280;25963;42.694;23.600;2023-09-30T10:06:22;95616.97;;;25.82;26.32
40245;BME280;25963;42.694;23.600;2023-09-30T10:08:49;95612.56;;;25.86;27.29
40245;BME280;25963;42.694;23.600;2023-09-30T10:11:18;95606.22;;;25.90;27.13
40245;BME280;25963;42.694;23.600;2023-09-30T10:13:56;95602.19;;;26.02;27.26
40245;BME280;25963;42.694;23.600;2023-09-30T10:19:19;95595.56;;;26.08;27.70
40245;BME280;25963;42.694;23.600;2023-09-30T10:24:56;95594.13;;;26.24;26.70
40245;BME280;25963;42.694;23.600;2023-09-30T10:30:14;95604.34;;;25.91;25.86
40245;BME280;25963;42.694;23.600;2023-09-30T10:40:50;95587.13;;;25.73;28.37
40245;BME280;25963;42.694;23.600;2023-09-30T10:43:32;95572.47;;;26.02;26.37
40245;BME280;25963;42.694;23.600;2023-09-30T10:45:59;95574.25;;;26.29;26.09
40245;BME280;25963;42.694;23.600;2023-09-30T10:50:52;95570.03;;;26.14;26.84
40245;BME280;25963;42.694;23.600;2023-09-30T10:53:18;95564.13;;;26.12;27.05
40245;BME280;25963;42.694;23.600;2023-09-30T10:55:45;95565.44;;;25.64;26.93
40245;BME280;25963;42.694;23.600;2023-09-30T10:58:14;95544.81;;;25.82;26.68
40245;BME280;25963;42.694;23.600;2023-09-30T11:00:54;95564.00;;;26.17;28.32
40245;BME280;25963;42.694;23.600;2023-09-30T11:03:23;95565.91;;;25.80;27.89
40245;BME280;25963;42.694;23.600;2023-09-30T11:05:49;95563.63;;;25.73;27.00
40245;BME280;25963;42.694;23.600;2023-09-30T11:08:17;95541.06;;;25.78;28.15
40245;BME280;25963;42.694;23.600;2023-09-30T11:10:48;95557.94;;;26.34;28.31
40245;BME280;25963;42.694;23.600;2023-09-30T11:13:13;95556.41;;;26.41;28.20
40245;BME280;25963;42.694;23.600;2023-09-30T11:15:40;95547.72;;;26.53;27.83
40245;BME280;25963;42.694;23.600;2023-09-30T11:18:18;95546.06;;;26.44;27.13
40245;BME280;25963;42.694;23.600;2023-09-30T11:20:44;95539.78;;;25.89;28.07
40245;BME280;25963;42.694;23.600;2023-09-30T11:23:13;95552.47;;;26.25;28.27
40245;BME280;25963;42.694;23.600;2023-09-30T11:25:41;95542.63;;;26.29;28.33
40245;BME280;25963;42.694;23.600;2023-09-30T11:28:14;95531.06;;;26.60;27.27
40245;BME280;25963;42.694;23.600;2023-09-30T11:30:57;95539.25;;;26.24;27.51
40245;BME280;25963;42.694;23.600;2023-09-30T11:33:24;95547.56;;;26.27;28.61
40245;BME280;25963;42.694;23.600;2023-09-30T11:36:15;95538.34;;;26.51;28.59
40245;BME280;25963;42.694;23.600;2023-09-30T11:39:04;95543.63;;;26.33;28.57
40245;BME280;25963;42.694;23.600;2023-09-30T11:41:34;95530.09;;;26.11;27.39
40245;BME280;25963;42.694;23.600;2023-09-30T11:44:05;95543.13;;;26.31;27.27
40245;BME280;25963;42.694;23.600;2023-09-30T11:46:33;95542.38;;;26.17;27.76
40245;BME280;25963;42.694;23.600;2023-09-30T11:49:13;95518.53;;;25.96;27.58
40245;BME280;25963;42.694;23.600;2023-09-30T11:51:44;95534.00;;;26.05;27.00
40245;BME280;25963;42.694;23.600;2023-09-30T11:54:14;95527.81;;;26.27;29.68
40245;BME280;25963;42.694;23.600;2023-09-30T11:56:40;95508.22;;;25.99;27.90
40245;BME280;25963;42.694;23.600;2023-09-30T11:59:05;95511.09;;;26.25;27.89
40245;BME280;25963;42.694;23.600;2023-09-30T12:01:31;95516.25;;;25.90;27.40
40245;BME280;25963;42.694;23.600;2023-09-30T12:03:58;95509.31;;;25.98;27.96
40245;BME280;25963;42.694;23.600;2023-09-30T12:06:23;95516.72;;;26.51;28.00
40245;BME280;25963;42.694;23.600;2023-09-30T12:08:49;95506.50;;;26.25;26.96
40245;BME280;25963;42.694;23.600;2023-09-30T12:11:17;95502.59;;;26.09;27.70
40245;BME280;25963;42.694;23.600;2023-09-30T12:13:43;95505.22;;;26.00;27.40
40245;BME280;25963;42.694;23.600;2023-09-30T12:16:10;95506.47;;;25.80;27.63
40245;BME280;25963;42.694;23.600;2023-09-30T12:18:38;95503.16;;;25.83;27.82
40245;BME280;25963;42.694;23.600;2023-09-30T12:21:03;95502.06;;;25.84;28.98
40245;BME280;25963;42.694;23.600;2023-09-30T12:23:31;95509.69;;;26.05;27.35
40245;BME280;25963;42.694;23.600;2023-09-30T12:25:57;95491.13;;;25.89;27.66
40245;BME280;25963;42.694;23.600;2023-09-30T12:28:22;95485.63;;;25.81;27.76
40245;BME280;25963;42.694;23.600;2023-09-30T12:30:48;95494.66;;;26.12;28.00
40245;BME280;25963;42.694;23.600;2023-09-30T12:33:13;95492.19;;;26.25;26.92
40245;BME280;25963;42.694;23.600;2023-09-30T12:35:38;95490.16;;;26.30;27.61
40245;BME280;25963;42.694;23.600;2023-09-30T12:38:04;95493.41;;;26.18;27.17
40245;BME280;25963;42.694;23.600;2023-09-30T12:40:29;95481.88;;;26.27;28.21
40245;BME280;25963;42.694;23.600;2023-09-30T12:42:55;95482.94;;;25.81;27.54
40245;BME280;25963;42.694;23.600;2023-09-30T12:45:20;95442.94;;;25.46;28.02
40245;BME280;25963;42.694;23.600;2023-09-30T12:47:46;95465.09;;;25.93;27.78
40245;BME280;25963;42.694;23.600;2023-09-30T12:50:13;95480.44;;;26.07;28.13
40245;BME280;25963;42.694;23.600;2023-09-30T12:52:38;95479.75;;;25.79;27.55
40245;BME280;25963;42.694;23.600;2023-09-30T12:55:04;95474.50;;;25.60;27.44
40245;BME280;25963;42.694;23.600;2023-09-30T12:57:31;95480.16;;;25.86;27.76
40245;BME280;25963;42.694;23.600;2023-09-30T12:59:56;95467.94;;;25.88;27.79
40245;BME280;25963;42.694;23.600;2023-09-30T13:02:22;95465.16;;;25.66;27.72
40245;BME280;25963;42.694;23.600;2023-09-30T13:04:48;95460.31;;;25.54;28.30
40245;BME280;25963;42.694;23.600;2023-09-30T13:07:14;95464.09;;;25.67;27.09
40245;BME280;25963;42.694;23.600;2023-09-30T13:09:39;95457.56;;;25.68;28.09
40245;BME280;25963;42.694;23.600;2023-09-30T13:12:06;95462.97;;;25.82;27.69
40245;BME280;25963;42.694;23.600;2023-09-30T13:14:31;95448.22;;;25.51;28.16
40245;BME280;25963;42.694;23.600;2023-09-30T13:16:57;95468.25;;;25.73;28.86
40245;BME280;25963;42.694;23.600;2023-09-30T13:19:22;95448.13;;;25.79;28.57
40245;BME280;25963;42.694;23.600;2023-09-30T13:21:51;95452.34;;;25.71;28.15
40245;BME280;25963;42.694;23.600;2023-09-30T13:24:21;95450.59;;;25.67;29.30
40245;BME280;25963;42.694;23.600;2023-09-30T13:26:47;95457.84;;;25.44;28.11
40245;BME280;25963;42.694;23.600;2023-09-30T13:29:13;95461.66;;;25.43;28.79